createdAt,value
2022-11-24T00:01:27.402Z,63.20
2022-11-24T00:04:06.252Z,63.17
2022-11-24T00:06:35.868Z,63.13
2022-11-24T00:09:05.489Z,62.98
2022-11-24T00:11:34.784Z,62.93
2022-11-24T00:14:03.760Z,62.84
2022-11-24T00:16:34.441Z,62.82
2022-11-24T00:19:04.506Z,62.67
2022-11-24T00:21:32.827Z,62.87
2022-11-24T00:24:02.224Z,62.77
2022-11-24T00:26:35.051Z,62.79
2022-11-24T00:29:07.859Z,62.79
2022-11-24T00:31:39.036Z,62.86
2022-11-24T00:34:08.096Z,62.89
2022-11-24T00:36:37.023Z,62.95
2022-11-24T00:39:08.175Z,63.02
2022-11-24T00:41:35.909Z,63.07
2022-11-24T00:44:04.195Z,62.93
2022-11-24T00:46:32.149Z,62.86
2022-11-24T00:49:00.594Z,62.74
2022-11-24T00:51:30.580Z,62.73
2022-11-24T00:54:00.193Z,62.79
2022-11-24T00:56:28.674Z,62.83
2022-11-24T00:58:56.840Z,62.88
2022-11-24T01:01:26.911Z,62.83
2022-11-24T01:03:55.428Z,62.85
2022-11-24T01:06:26.121Z,62.92
2022-11-24T01:08:54.259Z,63.12
2022-11-24T01:11:50.788Z,63.12
2022-11-24T01:14:19.424Z,63.08
2022-11-24T01:16:47.329Z,63.15
2022-11-24T01:19:15.312Z,63.11
2022-11-24T01:21:43.178Z,63.10
2022-11-24T01:24:11.694Z,63.09
2022-11-24T01:26:39.688Z,62.92
2022-11-24T01:29:07.539Z,62.94
2022-11-24T01:31:37.044Z,63.01
2022-11-24T01:34:04.926Z,62.97
2022-11-24T01:36:33.143Z,63.02
2022-11-24T01:39:00.999Z,63.22
2022-11-24T01:41:29.151Z,63.45
2022-11-24T01:43:57.806Z,63.25
2022-11-24T01:46:28.646Z,63.24
2022-11-24T01:49:08.931Z,63.32
2022-11-24T01:51:43.516Z,63.46
2022-11-24T01:54:23.391Z,63.53
2022-11-24T01:56:58.566Z,63.45
2022-11-24T01:59:26.850Z,63.49
2022-11-24T02:01:56.635Z,63.34
2022-11-24T02:04:31.323Z,63.31
2022-11-24T02:07:02.743Z,63.44
2022-11-24T02:09:42.308Z,63.64
2022-11-24T02:12:11.505Z,63.92
2022-11-24T02:14:40.972Z,63.96
2022-11-24T02:17:09.840Z,63.92
2022-11-24T02:19:40.331Z,63.85
2022-11-24T02:22:18.590Z,63.90
2022-11-24T02:25:01.761Z,64.07
2022-11-24T02:27:30.799Z,63.99
2022-11-24T02:29:59.312Z,63.80
2022-11-24T02:32:28.506Z,64.00
2022-11-24T02:35:00.079Z,64.27
2022-11-24T02:37:27.824Z,64.42
2022-11-24T02:39:55.708Z,64.71
2022-11-24T02:42:24.545Z,64.88
2022-11-24T02:44:57.093Z,64.82
2022-11-24T02:47:24.810Z,64.69
2022-11-24T02:49:52.616Z,64.74
2022-11-24T02:52:20.554Z,64.60
2022-11-24T02:54:48.550Z,64.77
2022-11-24T02:57:17.489Z,64.71
2022-11-24T02:59:46.645Z,64.45
2022-11-24T03:02:14.672Z,64.54
2022-11-24T03:04:44.771Z,64.65
2022-11-24T03:07:12.619Z,64.76
2022-11-24T03:09:40.570Z,64.66
2022-11-24T03:12:08.424Z,64.70
2022-11-24T03:14:36.638Z,64.73
2022-11-24T03:17:04.814Z,64.73
2022-11-24T03:19:33.261Z,64.81
2022-11-24T03:22:02.419Z,64.50
2022-11-24T03:24:30.348Z,64.65
2022-11-24T03:26:58.396Z,64.65
2022-11-24T03:29:26.277Z,64.54
2022-11-24T03:31:54.402Z,64.63
2022-11-24T03:34:22.406Z,64.67
2022-11-24T03:36:50.512Z,64.91
2022-11-24T03:39:18.496Z,65.02
2022-11-24T03:41:46.409Z,64.97
2022-11-24T03:44:14.164Z,64.85
2022-11-24T03:46:42.180Z,64.79
2022-11-24T03:49:10.099Z,64.74
2022-11-24T03:51:37.978Z,64.67
2022-11-24T03:54:06.860Z,64.70
2022-11-24T03:56:34.806Z,64.68
2022-11-24T03:59:02.791Z,64.50
2022-11-24T04:01:30.760Z,64.50
2022-11-24T04:03:58.703Z,64.61
2022-11-24T04:06:26.769Z,64.52
2022-11-24T04:08:54.697Z,64.55
2022-11-24T04:11:41.323Z,64.60
2022-11-24T04:14:13.570Z,64.79
2022-11-24T04:16:41.908Z,64.73
2022-11-24T04:19:09.992Z,64.76
2022-11-24T04:21:37.848Z,64.72
2022-11-24T04:24:06.256Z,64.58
2022-11-24T04:26:34.208Z,64.31
2022-11-24T04:29:02.161Z,64.28
2022-11-24T04:31:30.098Z,64.27
2022-11-24T04:33:58.178Z,64.20
2022-11-24T04:36:26.202Z,64.05
2022-11-24T04:39:24.540Z,63.96
2022-11-24T04:41:42.049Z,63.88
2022-11-24T04:44:09.812Z,63.88
2022-11-24T04:46:37.849Z,63.80
2022-11-24T04:49:05.865Z,63.76
2022-11-24T04:51:33.674Z,63.69
2022-11-24T04:54:01.564Z,63.73
2022-11-24T04:56:29.745Z,63.87
2022-11-24T04:58:57.852Z,64.07
2022-11-24T05:01:25.952Z,64.28
2022-11-24T05:03:54.696Z,64.50
2022-11-24T05:06:23.564Z,64.45
2022-11-24T05:08:51.984Z,64.37
2022-11-24T05:11:20.053Z,64.46
2022-11-24T05:13:48.013Z,64.60
2022-11-24T05:16:16.062Z,64.61
2022-11-24T05:18:43.989Z,64.69
2022-11-24T05:21:11.983Z,64.90
2022-11-24T05:23:41.093Z,65.31
2022-11-24T05:26:09.138Z,65.32
2022-11-24T05:28:37.016Z,65.32
2022-11-24T05:31:05.479Z,65.22
2022-11-24T05:33:33.714Z,65.27
2022-11-24T05:36:04.233Z,65.00
2022-11-24T05:38:33.359Z,65.00
2022-11-24T05:41:05.888Z,64.91
2022-11-24T05:43:33.970Z,64.89
2022-11-24T05:46:02.160Z,64.84
2022-11-24T05:48:30.195Z,65.03
2022-11-24T05:50:58.497Z,65.16
2022-11-24T05:53:27.221Z,65.23
2022-11-24T05:55:55.160Z,65.33
2022-11-24T05:58:23.097Z,65.34
2022-11-24T06:00:51.071Z,65.74
2022-11-24T06:03:19.329Z,65.81
2022-11-24T06:05:47.420Z,65.70
2022-11-24T06:08:15.637Z,65.72
2022-11-24T06:10:43.570Z,65.58
2022-11-24T06:13:11.502Z,65.46
2022-11-24T06:15:40.937Z,65.37
2022-11-24T06:18:08.945Z,65.31
2022-11-24T06:20:38.170Z,65.09
2022-11-24T06:23:06.102Z,65.35
2022-11-24T06:25:34.002Z,65.39
2022-11-24T06:28:04.175Z,65.32
2022-11-24T06:30:32.214Z,65.06
2022-11-24T06:33:00.458Z,65.07
2022-11-24T06:35:28.500Z,65.16
2022-11-24T06:37:56.424Z,65.16
2022-11-24T06:40:24.860Z,65.33
2022-11-24T06:42:52.975Z,65.51
2022-11-24T06:45:20.939Z,65.54
2022-11-24T06:47:48.900Z,65.61
2022-11-24T06:50:16.901Z,65.78
2022-11-24T06:52:44.876Z,65.70
2022-11-24T06:55:12.683Z,65.65
2022-11-24T06:57:40.675Z,65.61
2022-11-24T07:00:09.177Z,65.40
2022-11-24T07:02:42.496Z,65.56
2022-11-24T07:05:14.515Z,65.52
2022-11-24T07:07:42.581Z,65.68
2022-11-24T07:10:10.538Z,65.65
2022-11-24T07:12:38.813Z,65.61
2022-11-24T07:15:07.430Z,65.59
2022-11-24T07:17:37.864Z,65.42
2022-11-24T07:20:07.400Z,65.58
2022-11-24T07:22:35.717Z,65.38
2022-11-24T07:25:07.392Z,65.35
2022-11-24T07:27:36.148Z,65.29
2022-11-24T07:30:05.527Z,65.34
2022-11-24T07:32:33.959Z,65.36
2022-11-24T07:35:01.944Z,65.25
2022-11-24T07:37:31.920Z,65.05
2022-11-24T07:40:00.114Z,65.10
2022-11-24T07:42:28.001Z,65.21
2022-11-24T07:44:55.958Z,65.41
2022-11-24T07:47:23.776Z,65.64
2022-11-24T07:49:51.702Z,65.50
2022-11-24T07:52:19.495Z,65.52
2022-11-24T07:54:47.351Z,65.32
2022-11-24T07:57:15.214Z,65.03
2022-11-24T07:59:43.100Z,64.62
2022-11-24T08:02:13.392Z,64.65
2022-11-24T08:04:41.436Z,64.42
2022-11-24T08:07:09.467Z,64.53
2022-11-24T08:09:37.344Z,64.50
2022-11-24T08:12:05.619Z,64.38
2022-11-24T08:14:33.743Z,64.23
2022-11-24T08:17:01.770Z,64.25
2022-11-24T08:19:29.802Z,64.19
2022-11-24T08:21:57.698Z,64.03
2022-11-24T08:24:27.310Z,63.94
2022-11-24T08:26:55.121Z,64.02
2022-11-24T08:29:23.145Z,64.11
2022-11-24T08:31:51.095Z,64.20
2022-11-24T08:34:19.041Z,64.21
2022-11-24T08:36:46.881Z,64.28
2022-11-24T08:39:14.772Z,64.22
2022-11-24T08:41:42.514Z,64.31
2022-11-24T08:44:10.973Z,64.15
2022-11-24T08:46:38.903Z,64.22
2022-11-24T08:49:07.306Z,64.24
2022-11-24T08:51:35.276Z,63.97
2022-11-24T08:54:03.981Z,64.09
2022-11-24T08:56:33.756Z,64.12
2022-11-24T08:59:01.904Z,64.05
2022-11-24T09:01:30.150Z,64.11
2022-11-24T09:03:58.327Z,64.12
2022-11-24T09:06:31.033Z,64.13
2022-11-24T09:09:00.156Z,64.07
2022-11-24T09:11:28.403Z,64.17
2022-11-24T09:13:56.412Z,64.40
2022-11-24T09:16:26.940Z,64.57
2022-11-24T09:18:55.883Z,64.65
2022-11-24T09:21:24.194Z,64.72
2022-11-24T09:23:53.713Z,64.85
2022-11-24T09:26:30.139Z,64.82
2022-11-24T09:29:02.797Z,64.64
2022-11-24T09:31:34.426Z,64.64
2022-11-24T09:34:04.811Z,64.40
2022-11-24T09:36:33.061Z,64.57
2022-11-24T09:39:01.361Z,64.71
2022-11-24T09:41:43.593Z,64.75
2022-11-24T09:44:20.907Z,64.67
2022-11-24T09:47:06.479Z,64.73
2022-11-24T09:49:53.449Z,64.74
2022-11-24T09:52:25.919Z,64.82
2022-11-24T09:55:00.388Z,64.81
2022-11-24T09:57:35.718Z,64.83
2022-11-24T10:00:13.083Z,64.89
2022-11-24T10:02:41.171Z,64.92
2022-11-24T10:05:12.598Z,64.88
2022-11-24T10:08:08.373Z,64.94
2022-11-24T10:10:57.093Z,65.23
2022-11-24T10:14:15.286Z,65.05
2022-11-24T10:17:03.530Z,65.00
2022-11-24T10:19:37.103Z,64.94
2022-11-24T10:22:05.397Z,64.96
2022-11-24T10:24:58.038Z,64.96
2022-11-24T10:27:33.994Z,65.17
2022-11-24T10:30:02.871Z,65.13
2022-11-24T10:32:38.212Z,65.14
2022-11-24T10:35:15.225Z,65.37
2022-11-24T10:37:57.520Z,65.37
2022-11-24T10:43:19.826Z,65.69
2022-11-24T10:45:48.212Z,65.60
2022-11-24T10:48:24.452Z,65.49
2022-11-24T10:51:01.685Z,65.46
2022-11-24T10:53:31.124Z,65.62
2022-11-24T10:56:02.175Z,65.72
2022-11-24T10:58:37.366Z,65.51
2022-11-24T11:01:15.544Z,65.53
2022-11-24T11:03:56.018Z,65.57
2022-11-24T11:06:31.731Z,65.59
2022-11-24T11:09:08.771Z,65.57
2022-11-24T11:11:39.379Z,65.61
2022-11-24T11:14:10.426Z,65.51
2022-11-24T11:16:52.527Z,65.30
2022-11-24T11:19:54.368Z,65.16
2022-11-24T11:22:37.352Z,65.06
2022-11-24T11:25:11.318Z,65.32
2022-11-24T11:27:40.099Z,65.59
2022-11-24T11:36:17.085Z,65.49
2022-11-24T11:38:47.200Z,65.58
2022-11-24T11:41:28.955Z,65.68
2022-11-24T11:44:26.202Z,65.60
2022-11-24T11:46:58.755Z,65.50
2022-11-24T11:49:26.839Z,65.52
2022-11-24T11:52:10.488Z,65.48
2022-11-24T11:54:51.322Z,65.33
2022-11-24T11:57:46.061Z,65.39
2022-11-24T12:00:22.217Z,65.67
2022-11-24T12:03:16.622Z,65.65
2022-11-24T12:05:48.080Z,65.60
2022-11-24T12:08:29.085Z,65.48
2022-11-24T12:10:59.800Z,65.52
2022-11-24T12:13:55.618Z,65.45
2022-11-24T12:16:52.921Z,65.61
2022-11-24T12:19:36.527Z,65.62
2022-11-24T12:22:16.501Z,65.56
2022-11-24T12:24:59.937Z,65.71
2022-11-24T12:27:34.023Z,65.81
2022-11-24T12:30:22.064Z,65.90
2022-11-24T12:33:05.675Z,66.02
2022-11-24T12:35:39.885Z,66.38
2022-11-24T12:38:45.934Z,66.55
2022-11-24T12:41:41.550Z,66.52
2022-11-24T12:44:55.476Z,66.48
2022-11-24T12:47:29.151Z,66.33
2022-11-24T12:50:18.873Z,66.31
2022-11-24T12:53:22.322Z,66.12
2022-11-24T12:55:50.303Z,66.07
2022-11-24T12:58:35.523Z,66.15
2022-11-24T13:01:18.591Z,66.06
2022-11-24T13:03:59.304Z,66.23
2022-11-24T13:06:30.573Z,66.35
2022-11-24T13:09:08.040Z,66.26
2022-11-24T13:11:40.947Z,66.30
2022-11-24T13:14:23.601Z,66.46
2022-11-24T13:20:14.907Z,66.52
2022-11-24T13:22:54.658Z,66.37
2022-11-24T13:25:25.300Z,66.33
2022-11-24T13:27:57.668Z,66.40
2022-11-24T13:30:34.947Z,66.27
2022-11-24T13:33:16.519Z,66.13
2022-11-24T13:36:04.354Z,66.18
2022-11-24T13:38:44.877Z,66.48
2022-11-24T13:41:33.025Z,66.37
2022-11-24T13:44:13.619Z,66.51
2022-11-24T13:47:04.794Z,66.32
2022-11-24T13:49:49.004Z,66.34
2022-11-24T13:52:37.976Z,66.53
2022-11-24T13:55:11.947Z,66.51
2022-11-24T13:57:43.918Z,66.31
2022-11-24T14:00:34.211Z,66.54
2022-11-24T14:03:02.033Z,66.63
2022-11-24T14:05:40.293Z,66.59
2022-11-24T14:08:19.629Z,66.75
2022-11-24T14:10:47.512Z,67.09
2022-11-24T14:13:30.090Z,67.27
2022-11-24T14:16:10.330Z,67.42
2022-11-24T14:18:40.720Z,67.43
2022-11-24T14:21:41.378Z,67.68
2022-11-24T14:24:20.504Z,67.96
2022-11-24T14:26:49.169Z,67.92
2022-11-24T14:29:20.610Z,67.91
2022-11-24T14:31:56.832Z,67.97
2022-11-24T14:34:25.981Z,68.18
2022-11-24T14:36:56.522Z,68.16
2022-11-24T14:39:26.906Z,67.97
2022-11-24T14:42:08.229Z,67.95
2022-11-24T14:44:42.075Z,67.93
2022-11-24T14:47:33.218Z,68.00
2022-11-24T14:50:14.538Z,67.96
2022-11-24T14:52:55.314Z,67.79
2022-11-24T14:55:35.483Z,67.84
2022-11-24T14:58:20.317Z,67.84
2022-11-24T15:01:07.639Z,67.72
2022-11-24T15:03:35.534Z,67.68
2022-11-24T15:06:03.760Z,67.58
2022-11-24T15:08:43.108Z,67.63
2022-11-24T15:11:11.198Z,67.45
2022-11-24T15:13:40.099Z,67.57
2022-11-24T15:16:16.061Z,67.57
2022-11-24T15:18:47.239Z,67.53
2022-11-24T15:21:19.275Z,67.43
2022-11-24T15:24:07.469Z,67.56
2022-11-24T15:26:41.449Z,67.70
2022-11-24T15:29:13.266Z,67.98
2022-11-24T15:31:46.302Z,68.20
2022-11-24T15:34:16.007Z,68.29
2022-11-24T15:36:43.815Z,68.57
2022-11-24T15:39:11.795Z,68.60
2022-11-24T15:41:40.861Z,68.54
2022-11-24T15:44:10.210Z,68.38
2022-11-24T15:46:39.563Z,68.17
2022-11-24T15:49:07.751Z,68.39
2022-11-24T15:51:36.219Z,68.53
2022-11-24T15:54:04.123Z,68.62
2022-11-24T15:56:35.348Z,68.59
2022-11-24T15:59:04.394Z,68.31
2022-11-24T16:01:33.971Z,68.30
2022-11-24T16:04:02.620Z,68.22
2022-11-24T16:06:31.029Z,68.26
2022-11-24T16:08:59.232Z,68.24
2022-11-24T16:11:27.481Z,68.28
2022-11-24T16:13:55.407Z,68.09
2022-11-24T16:16:25.324Z,68.22
2022-11-24T16:18:53.595Z,68.27
2022-11-24T16:21:21.951Z,68.40
2022-11-24T16:23:49.682Z,68.37
2022-11-24T16:26:17.545Z,68.34
2022-11-24T16:28:45.969Z,68.31
2022-11-24T16:31:16.236Z,68.07
2022-11-24T16:33:47.625Z,68.06
2022-11-24T16:36:15.377Z,68.05
2022-11-24T16:38:44.042Z,68.24
2022-11-24T16:41:12.630Z,68.35
2022-11-24T16:43:40.451Z,68.35
2022-11-24T16:46:15.874Z,68.12
2022-11-24T16:48:44.856Z,67.93
2022-11-24T16:51:13.816Z,67.86
2022-11-24T16:53:42.260Z,67.68
2022-11-24T16:56:10.199Z,67.50
2022-11-24T16:58:40.204Z,67.37
2022-11-24T17:01:13.135Z,67.57
2022-11-24T17:03:41.821Z,67.50
2022-11-24T17:06:15.878Z,67.40
2022-11-24T17:08:44.589Z,67.24
2022-11-24T17:11:13.913Z,67.29
2022-11-24T17:13:42.652Z,67.21
2022-11-24T17:16:13.325Z,67.14
2022-11-24T17:18:42.214Z,67.01
2022-11-24T17:21:17.624Z,66.89
2022-11-24T17:23:45.944Z,66.91
2022-11-24T17:26:16.074Z,67.25
2022-11-24T17:28:45.359Z,67.22
2022-11-24T17:31:28.625Z,67.30
2022-11-24T17:33:58.683Z,67.25
2022-11-24T17:36:28.022Z,67.21
2022-11-24T17:39:03.034Z,67.04
2022-11-24T17:41:37.753Z,67.07
2022-11-24T17:44:10.704Z,67.01
2022-11-24T17:46:41.756Z,66.92
2022-11-24T17:49:15.981Z,67.03
2022-11-24T17:51:58.717Z,66.91
2022-11-24T17:54:45.989Z,66.92
2022-11-24T17:57:23.552Z,67.08
2022-11-24T17:59:58.163Z,67.25
2022-11-24T18:02:31.424Z,67.20
2022-11-24T18:05:01.595Z,67.20
2022-11-24T18:07:42.278Z,67.14
2022-11-24T18:10:22.979Z,67.38
2022-11-24T18:12:50.729Z,67.32
2022-11-24T18:15:18.582Z,67.42
2022-11-24T18:17:46.506Z,67.32
2022-11-24T18:20:14.386Z,67.22
2022-11-24T18:23:04.693Z,67.15
2022-11-24T18:25:30.169Z,66.99
2022-11-24T18:27:58.096Z,67.16
2022-11-24T18:30:25.990Z,67.01
2022-11-24T18:32:53.870Z,66.94
2022-11-24T18:35:21.711Z,66.82
2022-11-24T18:37:49.567Z,66.54
2022-11-24T18:40:17.623Z,66.39
2022-11-24T18:42:45.505Z,66.41
2022-11-24T18:45:13.344Z,66.40
2022-11-24T18:47:41.401Z,66.43
2022-11-24T18:50:09.823Z,66.42
2022-11-24T18:52:37.680Z,66.53
2022-11-24T18:55:05.859Z,66.40
2022-11-24T18:57:33.658Z,66.51
2022-11-24T19:00:01.743Z,66.47
2022-11-24T19:02:29.713Z,66.41
2022-11-24T19:04:57.676Z,66.58
2022-11-24T19:07:25.644Z,66.75
2022-11-24T19:09:53.517Z,66.73
2022-11-24T19:12:21.286Z,66.59
2022-11-24T19:14:49.099Z,66.62
2022-11-24T19:17:17.022Z,66.47
2022-11-24T19:19:44.838Z,66.48
2022-11-24T19:22:13.535Z,66.41
2022-11-24T19:24:41.904Z,66.41
2022-11-24T19:27:10.778Z,66.34
2022-11-24T19:29:42.939Z,66.21
2022-11-24T19:32:11.257Z,66.25
2022-11-24T19:34:39.549Z,66.24
2022-11-24T19:37:08.269Z,66.19
2022-11-24T19:39:36.353Z,66.24
2022-11-24T19:42:04.888Z,66.27
2022-11-24T19:44:33.039Z,66.00
2022-11-24T19:47:01.512Z,65.94
2022-11-24T19:49:29.439Z,65.88
2022-11-24T19:51:57.662Z,65.88
2022-11-24T19:54:25.593Z,65.80
2022-11-24T19:56:55.534Z,65.78
2022-11-24T19:59:24.153Z,65.81
2022-11-24T20:01:52.206Z,65.97
2022-11-24T20:04:21.437Z,66.14
2022-11-24T20:06:49.368Z,66.12
2022-11-24T20:09:18.221Z,66.06
2022-11-24T20:11:46.710Z,66.07
2022-11-24T20:14:16.548Z,66.02
2022-11-24T20:16:46.665Z,66.15
2022-11-24T20:19:17.429Z,66.09
2022-11-24T20:21:50.251Z,66.09
2022-11-24T20:24:19.501Z,66.22
2022-11-24T20:26:56.372Z,66.27
2022-11-24T20:29:24.262Z,66.31
2022-11-24T20:31:55.276Z,66.28
2022-11-24T20:34:24.265Z,66.40
2022-11-24T20:36:53.155Z,66.50
2022-11-24T20:39:25.602Z,66.53
2022-11-24T20:41:55.502Z,66.54
2022-11-24T20:44:26.644Z,66.43
2022-11-24T20:46:57.021Z,66.49
2022-11-24T20:49:25.905Z,66.55
2022-11-24T20:51:57.599Z,66.56
2022-11-24T20:54:25.592Z,66.55
2022-11-24T20:56:53.674Z,66.60
2022-11-24T20:59:22.816Z,66.58
2022-11-24T21:01:52.425Z,66.67
2022-11-24T21:04:22.639Z,66.73
2022-11-24T21:06:50.726Z,66.99
2022-11-24T21:09:19.199Z,66.98
2022-11-24T21:11:47.778Z,66.84
2022-11-24T21:14:15.840Z,66.72
2022-11-24T21:16:44.109Z,66.85
2022-11-24T21:19:14.291Z,66.64
2022-11-24T21:21:43.175Z,66.75
2022-11-24T21:24:18.667Z,66.51
2022-11-24T21:26:48.036Z,66.46
2022-11-24T21:29:22.249Z,66.31
2022-11-24T21:31:50.444Z,66.36
2022-11-24T21:34:19.277Z,66.27
2022-11-24T21:36:47.599Z,66.18
2022-11-24T21:39:16.558Z,66.08
2022-11-24T21:41:44.430Z,66.07
2022-11-24T21:44:13.613Z,66.10
2022-11-24T21:46:46.059Z,66.01
2022-11-24T21:49:16.049Z,66.22
2022-11-24T21:51:44.131Z,66.26
2022-11-24T21:54:12.074Z,66.34
2022-11-24T21:56:39.970Z,66.57
2022-11-24T21:59:07.796Z,66.72
2022-11-24T22:01:35.743Z,66.85
2022-11-24T22:04:03.721Z,66.86
2022-11-24T22:06:33.339Z,66.91
2022-11-24T22:09:01.418Z,66.93
2022-11-24T22:11:29.272Z,67.01
2022-11-24T22:13:57.074Z,66.97
2022-11-24T22:16:25.819Z,67.14
2022-11-24T22:18:54.101Z,67.22
2022-11-24T22:21:25.734Z,67.19
2022-11-24T22:23:53.495Z,67.44
2022-11-24T22:26:23.726Z,67.68
2022-11-24T22:28:53.382Z,67.68
2022-11-24T22:31:23.660Z,67.65
2022-11-24T22:33:53.079Z,67.54
2022-11-24T22:36:23.182Z,67.53
2022-11-24T22:38:56.471Z,67.81
2022-11-24T22:41:25.051Z,67.70
2022-11-24T22:43:54.024Z,67.46
2022-11-24T22:46:27.292Z,67.74
2022-11-24T22:48:58.574Z,67.69
2022-11-24T22:51:31.467Z,67.96
2022-11-24T22:54:01.532Z,67.90
2022-11-24T22:56:32.451Z,68.12
2022-11-24T22:59:02.000Z,68.17
2022-11-24T23:01:30.801Z,68.11
2022-11-24T23:03:58.664Z,68.21
2022-11-24T23:06:27.764Z,68.24
2022-11-24T23:08:57.178Z,68.51
2022-11-24T23:11:33.854Z,68.58
2022-11-24T23:14:12.129Z,68.59
2022-11-24T23:16:40.442Z,68.53
2022-11-24T23:19:08.723Z,68.35
2022-11-24T23:21:41.277Z,68.20
2022-11-24T23:24:10.799Z,68.12
2022-11-24T23:26:39.881Z,67.92
2022-11-24T23:29:08.227Z,68.06
2022-11-24T23:31:36.513Z,68.02
2022-11-24T23:34:04.583Z,68.02
2022-11-24T23:36:32.916Z,67.95
2022-11-24T23:39:11.086Z,67.99
2022-11-24T23:41:39.284Z,67.90
2022-11-24T23:44:07.801Z,67.77
2022-11-24T23:46:35.761Z,67.78
2022-11-24T23:49:03.653Z,67.82
2022-11-24T23:51:33.085Z,67.93
2022-11-24T23:54:01.384Z,67.91
2022-11-24T23:56:33.123Z,68.00
2022-11-24T23:59:02.677Z,67.91
